EWG6FM EDDK-LOWK
Flight info
| Callsign | EWG6FM |
|---|---|
| Flight time | 1h 7m |
| Altitude | 37000 |
| Route | KUMIK2Q KUMIK L603 TESGA DCT ESATI DCT DETEV DCT DINKU DCT BESNI DCT LATLO/N0426F330 DCT OBEDI DCT TISMA TISMA1T |
| Aircraft | A319/M-SDE3FGHIRWY/LB1 |
Departure
| Time | 2026-05-01 13:43 |
|---|---|
| Airport | Cologne Bonn Airport (EDDK) |
Arrival
| Time | 2026-05-01 14:50 |
|---|---|
| Airport | Klagenfurt Airport (LOWK) |
| Time | Latitude | Longitude | Altitude | Speed | Heading |
|---|---|---|---|---|---|
| 2026-05-01 12:53 | 50.88056 | 7.12188 | 232 ft | 0 kts | 216° |
| 2026-05-01 13:00 | 50.88056 | 7.12189 | 259 ft | 0 kts | 216° |
| 2026-05-01 13:36 | 50.88094 | 7.12222 | 233 ft | 4 kts | 192° |
| 2026-05-01 13:37 | 50.88124 | 7.12216 | 235 ft | 3 kts | 128° |
| 2026-05-01 13:37 | 50.88125 | 7.12213 | 235 ft | 0 kts | 126° |
| 2026-05-01 13:40 | 50.88116 | 7.12233 | 234 ft | 5 kts | 126° |
| 2026-05-01 13:40 | 50.88099 | 7.12306 | 232 ft | 9 kts | 100° |
| 2026-05-01 13:40 | 50.88064 | 7.12402 | 232 ft | 12 kts | 126° |
| 2026-05-01 13:40 | 50.88018 | 7.12533 | 235 ft | 15 kts | 120° |
| 2026-05-01 13:41 | 50.87986 | 7.12690 | 233 ft | 9 kts | 82° |
| 2026-05-01 13:41 | 50.87996 | 7.12749 | 238 ft | 4 kts | 74° |
| 2026-05-01 13:41 | 50.88000 | 7.12770 | 237 ft | 1 kts | 74° |
| 2026-05-01 13:41 | 50.88001 | 7.12780 | 237 ft | 2 kts | 74° |
| 2026-05-01 13:42 | 50.88009 | 7.12838 | 238 ft | 8 kts | 83° |
| 2026-05-01 13:42 | 50.88018 | 7.12938 | 239 ft | 10 kts | 81° |
| 2026-05-01 13:42 | 50.87938 | 7.13069 | 239 ft | 33 kts | 139° |
| 2026-05-01 13:42 | 50.87619 | 7.13528 | 239 ft | 89 kts | 137° |
| 2026-05-01 13:43 | 50.87030 | 7.14383 | 255 ft | 139 kts | 137° |
| 2026-05-01 13:43 | 50.86287 | 7.15456 | 729 ft | 144 kts | 135° |
| 2026-05-01 13:43 | 50.85541 | 7.16525 | 1347 ft | 147 kts | 136° |
| 2026-05-01 13:43 | 50.84722 | 7.17691 | 1641 ft | 170 kts | 137° |
| 2026-05-01 13:44 | 50.83795 | 7.19009 | 2043 ft | 188 kts | 138° |
| 2026-05-01 13:44 | 50.82791 | 7.20432 | 2738 ft | 199 kts | 139° |
| 2026-05-01 13:44 | 50.81891 | 7.22095 | 3599 ft | 201 kts | 121° |
| 2026-05-01 13:44 | 50.81442 | 7.24214 | 4429 ft | 210 kts | 102° |
| 2026-05-01 13:45 | 50.81231 | 7.26614 | 4946 ft | 232 kts | 102° |
| 2026-05-01 13:45 | 50.81001 | 7.29272 | 5428 ft | 256 kts | 102° |
| 2026-05-01 13:45 | 50.80753 | 7.32112 | 6232 ft | 264 kts | 101° |
| 2026-05-01 13:45 | 50.80498 | 7.35019 | 7153 ft | 269 kts | 101° |
| 2026-05-01 13:46 | 50.80240 | 7.37978 | 8022 ft | 274 kts | 102° |
| 2026-05-01 13:46 | 50.79979 | 7.40987 | 8928 ft | 278 kts | 101° |
| 2026-05-01 13:46 | 50.79715 | 7.44020 | 9839 ft | 280 kts | 101° |
| 2026-05-01 13:46 | 50.79442 | 7.47098 | 10623 ft | 288 kts | 100° |
| 2026-05-01 13:47 | 50.79149 | 7.50358 | 10914 ft | 311 kts | 101° |
| 2026-05-01 13:47 | 50.78842 | 7.53759 | 11473 ft | 320 kts | 101° |
| 2026-05-01 13:47 | 50.78536 | 7.57267 | 12234 ft | 324 kts | 98° |
| 2026-05-01 13:47 | 50.78534 | 7.60906 | 12983 ft | 331 kts | 85° |
| 2026-05-01 13:48 | 50.78924 | 7.64466 | 13762 ft | 334 kts | 82° |
| 2026-05-01 13:48 | 50.79344 | 7.68088 | 14508 ft | 337 kts | 82° |
| 2026-05-01 13:48 | 50.79757 | 7.71749 | 15154 ft | 341 kts | 82° |
| 2026-05-01 13:48 | 50.80170 | 7.75455 | 15803 ft | 344 kts | 83° |
| 2026-05-01 13:49 | 50.80585 | 7.79192 | 16458 ft | 347 kts | 82° |
| 2026-05-01 13:49 | 50.81004 | 7.82975 | 17084 ft | 351 kts | 83° |
| 2026-05-01 13:49 | 50.81424 | 7.86794 | 17744 ft | 354 kts | 83° |
| 2026-05-01 13:49 | 50.81843 | 7.90648 | 18383 ft | 358 kts | 82° |
| 2026-05-01 13:50 | 50.82266 | 7.94561 | 18961 ft | 362 kts | 82° |
| 2026-05-01 13:50 | 50.82692 | 7.98485 | 19552 ft | 364 kts | 81° |
| 2026-05-01 13:50 | 50.83002 | 8.02467 | 20123 ft | 365 kts | 89° |
| 2026-05-01 13:50 | 50.82825 | 8.06473 | 20714 ft | 366 kts | 101° |
| 2026-05-01 13:51 | 50.82125 | 8.10338 | 21359 ft | 366 kts | 112° |
| 2026-05-01 13:51 | 50.80912 | 8.13914 | 21853 ft | 371 kts | 123° |
| 2026-05-01 13:51 | 50.79457 | 8.17320 | 22321 ft | 377 kts | 123° |
| 2026-05-01 13:51 | 50.77991 | 8.20767 | 22856 ft | 379 kts | 123° |
| 2026-05-01 13:52 | 50.76522 | 8.24239 | 23403 ft | 383 kts | 123° |
| 2026-05-01 13:52 | 50.75039 | 8.27749 | 23937 ft | 385 kts | 123° |
| 2026-05-01 13:52 | 50.73563 | 8.31235 | 24367 ft | 389 kts | 123° |
| 2026-05-01 13:52 | 50.72033 | 8.34844 | 24786 ft | 392 kts | 123° |
| 2026-05-01 13:53 | 50.70421 | 8.38269 | 25139 ft | 397 kts | 131° |
| 2026-05-01 13:53 | 50.66068 | 8.43714 | 25994 ft | 405 kts | 149° |
| 2026-05-01 13:53 | 50.63574 | 8.45804 | 26427 ft | 407 kts | 150° |
| 2026-05-01 13:54 | 50.61062 | 8.47920 | 26831 ft | 411 kts | 150° |
| 2026-05-01 13:54 | 50.58537 | 8.50055 | 27217 ft | 414 kts | 150° |
| 2026-05-01 13:54 | 50.55988 | 8.52209 | 27609 ft | 417 kts | 150° |
| 2026-05-01 13:54 | 50.53418 | 8.54378 | 27973 ft | 421 kts | 150° |
| 2026-05-01 13:55 | 50.50824 | 8.56566 | 28361 ft | 424 kts | 151° |
| 2026-05-01 13:55 | 50.48212 | 8.58766 | 28743 ft | 428 kts | 150° |
| 2026-05-01 13:55 | 50.45605 | 8.61056 | 29104 ft | 431 kts | 146° |
| 2026-05-01 13:55 | 50.43205 | 8.63875 | 29490 ft | 432 kts | 136° |
| 2026-05-01 13:56 | 50.41022 | 8.67135 | 29855 ft | 435 kts | 135° |
| 2026-05-01 13:56 | 50.38841 | 8.70439 | 30244 ft | 438 kts | 134° |
| 2026-05-01 13:56 | 50.36639 | 8.73761 | 30554 ft | 441 kts | 135° |
| 2026-05-01 13:56 | 50.34417 | 8.77101 | 30852 ft | 444 kts | 135° |
| 2026-05-01 13:57 | 50.32177 | 8.80457 | 31152 ft | 447 kts | 135° |
| 2026-05-01 13:57 | 50.29930 | 8.83825 | 31455 ft | 449 kts | 135° |
| 2026-05-01 13:57 | 50.27665 | 8.87221 | 31732 ft | 452 kts | 135° |
| 2026-05-01 13:57 | 50.25385 | 8.90634 | 32049 ft | 453 kts | 135° |
| 2026-05-01 13:58 | 50.23107 | 8.94037 | 32507 ft | 452 kts | 135° |
| 2026-05-01 13:58 | 50.20837 | 8.97423 | 32897 ft | 452 kts | 135° |
| 2026-05-01 13:58 | 50.18559 | 9.00812 | 33269 ft | 452 kts | 136° |
| 2026-05-01 13:58 | 50.16309 | 9.04156 | 33682 ft | 452 kts | 136° |
| 2026-05-01 13:59 | 50.14002 | 9.07586 | 34028 ft | 454 kts | 135° |
| 2026-05-01 13:59 | 50.11746 | 9.10936 | 34365 ft | 455 kts | 136° |
| 2026-05-01 13:59 | 50.09457 | 9.14325 | 34764 ft | 453 kts | 136° |
| 2026-05-01 13:59 | 50.07149 | 9.17739 | 35192 ft | 451 kts | 135° |
| 2026-05-01 14:00 | 50.04901 | 9.21063 | 35503 ft | 451 kts | 136° |
| 2026-05-01 14:00 | 50.02629 | 9.24420 | 35919 ft | 449 kts | 136° |
| 2026-05-01 14:00 | 50.00361 | 9.27766 | 36225 ft | 449 kts | 136° |
| 2026-05-01 14:00 | 49.98095 | 9.31109 | 36531 ft | 449 kts | 136° |
| 2026-05-01 14:01 | 49.95829 | 9.34451 | 36815 ft | 449 kts | 136° |
| 2026-05-01 14:01 | 49.93563 | 9.37790 | 37137 ft | 449 kts | 136° |
| 2026-05-01 14:01 | 49.91292 | 9.41128 | 37306 ft | 450 kts | 136° |
| 2026-05-01 14:01 | 49.89015 | 9.44466 | 37340 ft | 451 kts | 136° |
| 2026-05-01 14:02 | 49.84469 | 9.51108 | 37336 ft | 448 kts | 136° |
| 2026-05-01 14:02 | 49.79927 | 9.57729 | 37335 ft | 446 kts | 136° |
| 2026-05-01 14:03 | 49.75412 | 9.64301 | 37333 ft | 447 kts | 135° |
| 2026-05-01 14:03 | 49.70901 | 9.70835 | 37331 ft | 447 kts | 135° |
| 2026-05-01 14:04 | 49.66354 | 9.77397 | 37331 ft | 447 kts | 136° |
| 2026-05-01 14:04 | 49.62547 | 9.82885 | 37339 ft | 447 kts | 135° |
| 2026-05-01 14:05 | 49.57257 | 9.90488 | 37346 ft | 447 kts | 136° |
| 2026-05-01 14:05 | 49.52707 | 9.97020 | 37361 ft | 446 kts | 136° |
| 2026-05-01 14:06 | 49.48160 | 10.03513 | 37357 ft | 446 kts | 136° |
| 2026-05-01 14:06 | 49.43605 | 10.10000 | 37345 ft | 447 kts | 135° |
| 2026-05-01 14:07 | 49.39045 | 10.16484 | 37351 ft | 446 kts | 135° |
| 2026-05-01 14:08 | 49.32213 | 10.26178 | 37360 ft | 446 kts | 135° |
| 2026-05-01 14:08 | 49.27684 | 10.32564 | 37366 ft | 445 kts | 136° |
| 2026-05-01 14:09 | 49.23118 | 10.38990 | 37368 ft | 445 kts | 135° |
| 2026-05-01 14:09 | 49.18651 | 10.45534 | 37375 ft | 445 kts | 134° |
| 2026-05-01 14:10 | 49.14252 | 10.52180 | 37389 ft | 444 kts | 134° |
| 2026-05-01 14:10 | 49.09842 | 10.58793 | 37383 ft | 444 kts | 134° |
| 2026-05-01 14:11 | 49.05396 | 10.65354 | 37395 ft | 444 kts | 134° |
| 2026-05-01 14:11 | 48.98753 | 10.75105 | 37382 ft | 444 kts | 134° |
| 2026-05-01 14:12 | 48.94316 | 10.81632 | 37375 ft | 443 kts | 134° |
| 2026-05-01 14:12 | 48.89867 | 10.88142 | 37361 ft | 443 kts | 134° |
| 2026-05-01 14:13 | 48.86168 | 10.93544 | 37351 ft | 443 kts | 134° |
| 2026-05-01 14:13 | 48.80966 | 11.01124 | 37367 ft | 443 kts | 134° |
| 2026-05-01 14:14 | 48.76513 | 11.07592 | 37355 ft | 443 kts | 134° |
| 2026-05-01 14:14 | 48.72058 | 11.14044 | 37351 ft | 443 kts | 134° |
| 2026-05-01 14:15 | 48.67601 | 11.20487 | 37351 ft | 443 kts | 134° |
| 2026-05-01 14:15 | 48.63160 | 11.26958 | 37341 ft | 442 kts | 132° |
| 2026-05-01 14:16 | 48.59013 | 11.33724 | 37367 ft | 441 kts | 129° |
| 2026-05-01 14:16 | 48.54977 | 11.40703 | 37353 ft | 441 kts | 128° |
| 2026-05-01 14:17 | 48.50877 | 11.47650 | 37343 ft | 441 kts | 129° |
| 2026-05-01 14:17 | 48.46731 | 11.54481 | 37342 ft | 442 kts | 130° |
| 2026-05-01 14:18 | 48.42570 | 11.61296 | 37343 ft | 442 kts | 130° |
| 2026-05-01 14:18 | 48.39119 | 11.66962 | 37345 ft | 442 kts | 130° |
| 2026-05-01 14:19 | 48.34259 | 11.74923 | 37361 ft | 442 kts | 129° |
| 2026-05-01 14:19 | 48.30134 | 11.81682 | 37357 ft | 441 kts | 129° |
| 2026-05-01 14:20 | 48.23891 | 11.91869 | 37083 ft | 442 kts | 129° |
| 2026-05-01 14:20 | 48.21808 | 11.95255 | 36828 ft | 442 kts | 129° |
| 2026-05-01 14:21 | 48.19723 | 11.98639 | 36566 ft | 441 kts | 129° |
| 2026-05-01 14:21 | 48.17643 | 12.02010 | 36306 ft | 440 kts | 129° |
| 2026-05-01 14:21 | 48.15571 | 12.05363 | 36073 ft | 437 kts | 129° |
| 2026-05-01 14:22 | 48.11454 | 12.12007 | 35573 ft | 433 kts | 129° |
| 2026-05-01 14:22 | 48.09414 | 12.15303 | 35324 ft | 430 kts | 129° |
| 2026-05-01 14:22 | 48.07384 | 12.18583 | 35078 ft | 428 kts | 129° |
| 2026-05-01 14:22 | 48.05362 | 12.21843 | 34830 ft | 426 kts | 129° |
| 2026-05-01 14:23 | 48.03380 | 12.25029 | 34600 ft | 424 kts | 129° |
| 2026-05-01 14:23 | 48.01349 | 12.28294 | 34355 ft | 422 kts | 129° |
| 2026-05-01 14:23 | 47.99358 | 12.31492 | 34086 ft | 420 kts | 129° |
| 2026-05-01 14:23 | 47.98046 | 12.33595 | 33899 ft | 418 kts | 129° |
| 2026-05-01 14:24 | 47.95419 | 12.37796 | 33537 ft | 416 kts | 129° |
| 2026-05-01 14:24 | 47.93443 | 12.40946 | 33321 ft | 415 kts | 129° |
| 2026-05-01 14:24 | 47.89498 | 12.47234 | 33347 ft | 415 kts | 129° |
| 2026-05-01 14:25 | 47.86220 | 12.52457 | 33340 ft | 415 kts | 129° |
| 2026-05-01 14:25 | 47.82273 | 12.58731 | 33328 ft | 415 kts | 129° |
| 2026-05-01 14:26 | 47.80303 | 12.61848 | 32928 ft | 412 kts | 129° |
| 2026-05-01 14:26 | 47.76401 | 12.68020 | 32029 ft | 407 kts | 129° |
| 2026-05-01 14:26 | 47.74470 | 12.71079 | 31610 ft | 405 kts | 129° |
| 2026-05-01 14:27 | 47.72545 | 12.74122 | 31189 ft | 403 kts | 129° |
| 2026-05-01 14:27 | 47.70621 | 12.77150 | 30766 ft | 402 kts | 129° |
| 2026-05-01 14:27 | 47.68707 | 12.80160 | 30369 ft | 400 kts | 128° |
| 2026-05-01 14:28 | 47.64850 | 12.86041 | 29502 ft | 396 kts | 130° |
| 2026-05-01 14:28 | 47.62922 | 12.88872 | 29097 ft | 393 kts | 130° |
| 2026-05-01 14:28 | 47.60981 | 12.91701 | 28713 ft | 391 kts | 131° |
| 2026-05-01 14:28 | 47.59048 | 12.94514 | 28356 ft | 388 kts | 130° |
| 2026-05-01 14:29 | 47.57136 | 12.97305 | 27980 ft | 385 kts | 130° |
| 2026-05-01 14:29 | 47.55236 | 13.00086 | 27594 ft | 383 kts | 130° |
| 2026-05-01 14:30 | 47.49630 | 13.08339 | 26462 ft | 375 kts | 130° |
| 2026-05-01 14:30 | 47.47786 | 13.11056 | 26019 ft | 373 kts | 130° |
| 2026-05-01 14:30 | 47.45954 | 13.13747 | 25669 ft | 370 kts | 130° |
| 2026-05-01 14:31 | 47.42324 | 13.19070 | 24968 ft | 365 kts | 130° |
| 2026-05-01 14:31 | 47.40525 | 13.21704 | 24729 ft | 364 kts | 130° |
| 2026-05-01 14:31 | 47.38730 | 13.24328 | 24500 ft | 362 kts | 130° |
| 2026-05-01 14:31 | 47.36939 | 13.26937 | 24266 ft | 361 kts | 130° |
| 2026-05-01 14:32 | 47.35153 | 13.29536 | 24031 ft | 360 kts | 130° |
| 2026-05-01 14:32 | 47.33377 | 13.32131 | 23776 ft | 357 kts | 128° |
| 2026-05-01 14:32 | 47.31815 | 13.34923 | 23491 ft | 351 kts | 121° |
| 2026-05-01 14:32 | 47.30394 | 13.37788 | 23262 ft | 349 kts | 120° |
| 2026-05-01 14:33 | 47.28963 | 13.40662 | 22981 ft | 347 kts | 120° |
| 2026-05-01 14:33 | 47.27535 | 13.43523 | 22712 ft | 347 kts | 120° |
| 2026-05-01 14:33 | 47.26107 | 13.46374 | 22445 ft | 344 kts | 121° |
| 2026-05-01 14:33 | 47.24689 | 13.49203 | 22175 ft | 342 kts | 121° |
| 2026-05-01 14:34 | 47.23276 | 13.52014 | 21917 ft | 340 kts | 121° |
| 2026-05-01 14:34 | 47.21873 | 13.54804 | 21657 ft | 338 kts | 121° |
| 2026-05-01 14:34 | 47.20479 | 13.57585 | 21399 ft | 337 kts | 121° |
| 2026-05-01 14:34 | 47.19090 | 13.60361 | 21152 ft | 336 kts | 121° |
| 2026-05-01 14:35 | 47.17704 | 13.63124 | 20894 ft | 334 kts | 121° |
| 2026-05-01 14:35 | 47.16326 | 13.65869 | 20656 ft | 335 kts | 121° |
| 2026-05-01 14:35 | 47.14940 | 13.68627 | 20404 ft | 334 kts | 121° |
| 2026-05-01 14:35 | 47.13564 | 13.71356 | 20162 ft | 331 kts | 121° |
| 2026-05-01 14:36 | 47.12197 | 13.74067 | 19915 ft | 330 kts | 121° |
| 2026-05-01 14:36 | 47.10833 | 13.76769 | 19673 ft | 328 kts | 121° |
| 2026-05-01 14:36 | 47.09476 | 13.79451 | 19449 ft | 327 kts | 121° |
| 2026-05-01 14:36 | 47.08135 | 13.82098 | 19203 ft | 326 kts | 121° |
| 2026-05-01 14:37 | 47.06788 | 13.84756 | 18965 ft | 325 kts | 121° |
| 2026-05-01 14:37 | 47.05439 | 13.87415 | 18731 ft | 324 kts | 121° |
| 2026-05-01 14:37 | 47.04094 | 13.90060 | 18471 ft | 323 kts | 121° |
| 2026-05-01 14:37 | 47.02758 | 13.92690 | 18201 ft | 321 kts | 121° |
| 2026-05-01 14:38 | 47.01424 | 13.95315 | 17931 ft | 320 kts | 121° |
| 2026-05-01 14:38 | 47.00096 | 13.97928 | 17664 ft | 319 kts | 121° |
| 2026-05-01 14:38 | 46.98772 | 14.00529 | 17396 ft | 318 kts | 121° |
| 2026-05-01 14:38 | 46.97449 | 14.03126 | 17140 ft | 317 kts | 121° |
| 2026-05-01 14:39 | 46.96131 | 14.05708 | 16897 ft | 316 kts | 121° |
| 2026-05-01 14:39 | 46.94837 | 14.08282 | 16519 ft | 313 kts | 120° |
| 2026-05-01 14:39 | 46.93557 | 14.10862 | 16167 ft | 312 kts | 120° |
| 2026-05-01 14:39 | 46.92293 | 14.13427 | 15792 ft | 310 kts | 120° |
| 2026-05-01 14:40 | 46.91033 | 14.15985 | 15375 ft | 309 kts | 120° |
| 2026-05-01 14:40 | 46.89791 | 14.18496 | 15025 ft | 308 kts | 120° |
| 2026-05-01 14:40 | 46.88536 | 14.21020 | 14680 ft | 307 kts | 120° |
| 2026-05-01 14:40 | 46.87282 | 14.23538 | 14334 ft | 305 kts | 120° |
| 2026-05-01 14:41 | 46.86035 | 14.26037 | 13970 ft | 304 kts | 120° |
| 2026-05-01 14:41 | 46.84791 | 14.28525 | 13589 ft | 302 kts | 121° |
| 2026-05-01 14:41 | 46.83550 | 14.31003 | 13168 ft | 301 kts | 121° |
| 2026-05-01 14:41 | 46.82316 | 14.33464 | 12731 ft | 300 kts | 121° |
| 2026-05-01 14:42 | 46.81087 | 14.35914 | 12312 ft | 298 kts | 121° |
| 2026-05-01 14:42 | 46.79868 | 14.38345 | 11823 ft | 296 kts | 121° |
| 2026-05-01 14:42 | 46.78659 | 14.40763 | 11404 ft | 293 kts | 122° |
| 2026-05-01 14:42 | 46.77460 | 14.43157 | 10941 ft | 290 kts | 122° |
| 2026-05-01 14:43 | 46.76274 | 14.45524 | 10389 ft | 288 kts | 122° |
| 2026-05-01 14:43 | 46.75095 | 14.47879 | 9817 ft | 286 kts | 123° |
| 2026-05-01 14:43 | 46.73923 | 14.50212 | 9235 ft | 284 kts | 123° |
| 2026-05-01 14:43 | 46.72756 | 14.52528 | 8651 ft | 282 kts | 123° |
| 2026-05-01 14:44 | 46.71609 | 14.54801 | 8105 ft | 281 kts | 123° |
| 2026-05-01 14:44 | 46.69323 | 14.59317 | 7249 ft | 269 kts | 124° |
| 2026-05-01 14:44 | 46.68214 | 14.61502 | 6926 ft | 261 kts | 124° |
| 2026-05-01 14:45 | 46.66887 | 14.63209 | 6601 ft | 255 kts | 154° |
| 2026-05-01 14:45 | 46.63542 | 14.62831 | 5944 ft | 244 kts | 196° |
| 2026-05-01 14:45 | 46.61931 | 14.62117 | 5611 ft | 239 kts | 195° |
| 2026-05-01 14:46 | 46.60380 | 14.61345 | 5275 ft | 234 kts | 209° |
| 2026-05-01 14:46 | 46.59382 | 14.57508 | 4636 ft | 207 kts | 289° |
| 2026-05-01 14:46 | 46.59823 | 14.55561 | 4300 ft | 198 kts | 290° |
| 2026-05-01 14:47 | 46.60216 | 14.53685 | 4015 ft | 190 kts | 288° |
| 2026-05-01 14:47 | 46.60584 | 14.51874 | 3734 ft | 184 kts | 287° |
| 2026-05-01 14:47 | 46.60944 | 14.50113 | 3478 ft | 179 kts | 287° |
| 2026-05-01 14:48 | 46.61626 | 14.46860 | 3101 ft | 152 kts | 288° |
| 2026-05-01 14:48 | 46.61909 | 14.45425 | 2869 ft | 147 kts | 287° |
| 2026-05-01 14:48 | 46.62474 | 14.42589 | 2472 ft | 142 kts | 288° |
| 2026-05-01 14:49 | 46.63019 | 14.39863 | 2066 ft | 141 kts | 288° |
| 2026-05-01 14:49 | 46.63575 | 14.37107 | 1695 ft | 143 kts | 289° |
| 2026-05-01 14:50 | 46.63960 | 14.35221 | 1477 ft | 147 kts | 288° |
| 2026-05-01 14:50 | 46.64452 | 14.32790 | 1460 ft | 47 kts | 286° |
| 2026-05-01 14:51 | 46.64512 | 14.32494 | 1460 ft | 12 kts | 287° |
| 2026-05-01 14:51 | 46.64658 | 14.32470 | 1461 ft | 10 kts | 18° |
| 2026-05-01 14:52 | 46.64762 | 14.32478 | 1464 ft | 7 kts | 356° |
| 2026-05-01 14:52 | 46.64814 | 14.32469 | 1464 ft | 9 kts | 351° |
| 2026-05-01 14:52 | 46.64902 | 14.32482 | 1463 ft | 6 kts | 72° |
| 2026-05-01 14:53 | 46.64908 | 14.32512 | 1459 ft | 0 kts | 75° |